»·PEaware :: UAL595 KSFO-KPHX

UAL595 :: KSFO-KPHX

FLIGHT INFORMATION

Flight Status: Arrived
Operator:
United Airlines
More flights by this operator :: More flights under this callsign
Pilot: Vlad D. (11271)
Aircraft: BOEING 737-300
(B733)
More flights by this aircraft type
Origin: KSFO San Francisco Intl
United States
Destination: KPHX Phoenix Sky Harbor Intl
United States
More flights between these airports :: More routes between these airports
Route: +WESLA3 LOSHN BOILE BLH HYDRR1
File this flight plan on PilotEdge
Remarks: Flown with Virtual United
Altitude:
(Current/Filed)
37,000ft
Speed:
(Current/Filed)
450kts
Departed: 14-Jun-16 04:45 PM
Arrived: 14-Jun-16 06:20 PM
Distance/Time
Traveled:
564nm/1:35
Distance/Time
To Go:
Arrived

Flight Plot

Page will automatically refresh every two minutes.

Flight plan parsing failed; only flown route is shown


Map Options




Map Legend


Flown Route
Filed Route
Departure Airport
Arrival Airport
Navaid (VOR, NDB)
Fix

Horizontal Profiles

Position Reports

Time Latitude Longitude Heading Altitude Ground
Speed
14-Jun-16 16:15 37.618041 -122.384078 280 30ft 0kts
14-Jun-16 16:16 37.618041 -122.384078 280 30ft 0kts
14-Jun-16 16:17 37.618041 -122.384078 280 30ft 0kts
14-Jun-16 16:18 37.618041 -122.384078 280 30ft 0kts
14-Jun-16 16:19 37.618042 -122.384078 280 30ft 0kts
14-Jun-16 16:20 37.618042 -122.384078 280 30ft 0kts
14-Jun-16 16:21 37.618042 -122.384078 281 30ft 0kts
14-Jun-16 16:22 37.618043 -122.384078 281 30ft 0kts
14-Jun-16 16:23 37.618043 -122.384078 281 30ft 0kts
14-Jun-16 16:24 37.618044 -122.384078 281 30ft 0kts
14-Jun-16 16:25 37.618044 -122.384078 282 30ft 0kts
14-Jun-16 16:26 37.618045 -122.384078 282 30ft 0kts
14-Jun-16 16:27 37.618046 -122.384078 282 30ft 0kts
14-Jun-16 16:28 37.618003 -122.383812 258 30ft 0kts
14-Jun-16 16:29 37.618064 -122.383578 19 30ft 0kts
14-Jun-16 16:30 37.618423 -122.383269 33 30ft 0kts
14-Jun-16 16:31 37.618616 -122.383107 35 30ft 0kts
14-Jun-16 16:32 37.618616 -122.383107 35 30ft 0kts
14-Jun-16 16:33 37.618616 -122.383107 35 30ft 0kts
14-Jun-16 16:34 37.618616 -122.383107 35 30ft 0kts
14-Jun-16 16:35 37.618879 -122.382917 24 30ft 4kts
14-Jun-16 16:36 37.619063 -122.380600 118 30ft 11kts
14-Jun-16 16:37 37.617362 -122.375684 111 22ft 19kts
14-Jun-16 16:38 37.614775 -122.369452 129 10ft 19kts
14-Jun-16 16:39 37.611792 -122.363358 117 7ft 21kts
14-Jun-16 16:40 37.610541 -122.359667 72 7ft 7kts
14-Jun-16 16:41 37.610995 -122.359080 25 7ft 1kts
14-Jun-16 16:42 37.613396 -122.362381 296 7ft 70kts
14-Jun-16 16:43 37.629589 -122.399051 291 1746ft 134kts
14-Jun-16 16:44 37.647626 -122.443414 295 2678ft 197kts
14-Jun-16 16:45 37.663731 -122.512673 244 4789ft 241kts
14-Jun-16 16:46 37.594416 -122.515450 166 7502ft 293kts
14-Jun-16 16:47 37.517223 -122.483809 167 10281ft 308kts
14-Jun-16 16:48 37.445578 -122.406032 131 12101ft 367kts
14-Jun-16 16:49 37.379631 -122.303959 131 14747ft 387kts
14-Jun-16 16:50 37.310536 -122.197008 132 17209ft 406kts
14-Jun-16 16:51 37.237975 -122.085043 132 19471ft 423kts
14-Jun-16 16:52 37.163222 -121.970089 133 21556ft 439kts
14-Jun-16 16:53 37.085134 -121.850428 133 23456ft 454kts
14-Jun-16 16:54 37.004392 -121.727149 134 25201ft 467kts
14-Jun-16 16:55 36.988545 -121.703007 134 25520ft 469kts
14-Jun-16 16:56 36.856621 -121.502730 134 27982ft 488kts
14-Jun-16 16:57 36.770293 -121.372273 134 29891ft 486kts
14-Jun-16 16:58 36.685467 -121.243636 134 31667ft 481kts
14-Jun-16 16:59 36.600523 -121.116265 134 33095ft 480kts
14-Jun-16 17:00 36.515326 -120.989022 134 34361ft 479kts
14-Jun-16 17:01 36.429350 -120.862566 134 35219ft 484kts
14-Jun-16 17:02 36.343521 -120.734431 134 36203ft 483kts
14-Jun-16 17:03 36.257593 -120.606464 134 36929ft 485kts
14-Jun-16 17:04 36.171417 -120.478606 134 36931ft 483kts
14-Jun-16 17:05 36.085392 -120.351474 134 36926ft 483kts
14-Jun-16 17:06 35.999900 -120.224619 135 36906ft 482kts
14-Jun-16 17:07 35.913635 -120.098093 135 36895ft 482kts
14-Jun-16 17:08 35.827769 -119.972584 135 36893ft 482kts
14-Jun-16 17:09 35.749622 -119.860692 134 36899ft 471kts
14-Jun-16 17:10 35.672126 -119.750522 133 36887ft 463kts
14-Jun-16 17:11 35.587871 -119.631418 133 36884ft 465kts
14-Jun-16 17:12 35.503176 -119.512148 133 36881ft 465kts
14-Jun-16 17:13 35.418574 -119.393427 133 36881ft 465kts
14-Jun-16 17:14 35.334351 -119.274873 134 36879ft 464kts
14-Jun-16 17:15 35.249581 -119.156617 134 36882ft 465kts
14-Jun-16 17:16 35.164260 -119.038129 134 36881ft 464kts
14-Jun-16 17:17 35.079034 -118.920175 134 36911ft 464kts
14-Jun-16 17:18 34.993789 -118.802603 134 36988ft 463kts
14-Jun-16 17:19 34.908587 -118.685487 134 37001ft 463kts
14-Jun-16 17:20 34.824122 -118.569771 134 36975ft 464kts
14-Jun-16 17:21 34.738687 -118.453120 134 36905ft 466kts
14-Jun-16 17:22 34.652948 -118.336392 134 36887ft 466kts
14-Jun-16 17:23 34.567293 -118.219413 135 36894ft 467kts
14-Jun-16 17:24 34.481272 -118.103152 135 36899ft 465kts
14-Jun-16 17:25 34.407805 -117.977299 106 36921ft 468kts
14-Jun-16 17:26 34.374582 -117.826604 106 36946ft 460kts
14-Jun-16 17:27 34.339075 -117.678899 107 36915ft 464kts
14-Jun-16 17:28 34.303157 -117.530174 107 36903ft 466kts
14-Jun-16 17:29 34.266977 -117.381254 107 36903ft 465kts
14-Jun-16 17:30 34.231180 -117.232827 107 36909ft 465kts
14-Jun-16 17:31 34.194590 -117.083878 107 36908ft 465kts
14-Jun-16 17:32 34.157802 -116.935062 107 36908ft 465kts
14-Jun-16 17:33 34.120824 -116.786337 107 36865ft 467kts
14-Jun-16 17:34 34.083145 -116.635660 107 36768ft 471kts
14-Jun-16 17:35 34.045102 -116.484393 107 36753ft 471kts
14-Jun-16 17:36 34.007322 -116.334957 107 36755ft 471kts
14-Jun-16 17:37 33.969772 -116.185461 108 36755ft 471kts
14-Jun-16 17:38 33.931605 -116.036298 107 36718ft 470kts
14-Jun-16 17:39 33.893580 -115.888496 107 36694ft 467kts
14-Jun-16 17:40 33.855009 -115.739377 107 36699ft 468kts
14-Jun-16 17:41 33.816276 -115.590468 107 36697ft 468kts
14-Jun-16 17:42 33.777305 -115.441466 107 36698ft 468kts
14-Jun-16 17:43 33.738305 -115.292164 107 36708ft 469kts
14-Jun-16 17:44 33.699106 -115.143090 108 36727ft 470kts
14-Jun-16 17:45 33.659414 -114.993822 108 36725ft 470kts
14-Jun-16 17:46 33.619704 -114.845285 108 36725ft 470kts
14-Jun-16 17:47 33.583809 -114.695782 102 36724ft 470kts
14-Jun-16 17:48 33.556048 -114.542513 102 36726ft 470kts
14-Jun-16 17:49 33.527764 -114.389892 102 34675ft 473kts
14-Jun-16 17:50 33.499915 -114.238397 102 31700ft 470kts
14-Jun-16 17:51 33.471241 -114.085722 103 28528ft 467kts
14-Jun-16 17:52 33.442520 -113.934050 103 26804ft 470kts
14-Jun-16 17:53 33.414041 -113.784707 103 24796ft 452kts
14-Jun-16 17:54 33.386389 -113.640687 103 23145ft 440kts
14-Jun-16 17:55 33.359204 -113.500026 103 21643ft 429kts
14-Jun-16 17:56 33.332474 -113.362587 103 20137ft 418kts
14-Jun-16 17:57 33.311206 -113.251785 104 18937ft 406kts
14-Jun-16 17:58 33.285511 -113.120830 104 18787ft 407kts
14-Jun-16 17:59 33.276860 -112.986270 88 17778ft 407kts
14-Jun-16 18:00 33.280630 -112.854891 88 15770ft 388kts
14-Jun-16 18:01 33.313029 -112.735053 65 13500ft 376kts
14-Jun-16 18:02 33.353675 -112.624279 66 12201ft 338kts
14-Jun-16 18:03 33.390119 -112.527388 65 10926ft 315kts
14-Jun-16 18:04 33.423749 -112.434717 67 9314ft 308kts
14-Jun-16 18:05 33.428779 -112.335505 89 7666ft 300kts
14-Jun-16 18:06 33.430873 -112.237970 88 6127ft 292kts
14-Jun-16 18:07 33.433413 -112.141724 88 4540ft 288kts
14-Jun-16 18:08 33.435708 -112.051452 88 3995ft 247kts
14-Jun-16 18:09 33.437715 -111.970010 89 3997ft 248kts
14-Jun-16 18:10 33.439661 -111.888987 89 4019ft 238kts
14-Jun-16 18:11 33.451711 -111.818145 25 3472ft 212kts
14-Jun-16 18:12 33.485488 -111.848047 255 2952ft 181kts
14-Jun-16 18:13 33.447508 -111.880880 228 3002ft 173kts
14-Jun-16 18:14 33.440652 -111.930398 268 2160ft 137kts
14-Jun-16 18:15 33.441058 -111.976458 269 1433ft 135kts
14-Jun-16 18:16 33.440871 -112.011515 269 1126ft 51kts
14-Jun-16 18:17 33.440491 -112.016868 226 1122ft 3kts
14-Jun-16 18:18 33.439749 -112.015275 90 1123ft 7kts
14-Jun-16 18:19 33.439745 -112.013709 90 1125ft 3kts
14-Jun-16 18:20 33.439464 -112.011419 151 1126ft 13kts
14-Jun-16 18:21 33.437438 -112.009891 109 1126ft 4kts
14-Jun-16 18:22 33.437344 -112.009394 100 1126ft 0kts
14-Jun-16 18:23 33.437344 -112.009394 100 1126ft 0kts
14-Jun-16 18:24 33.437344 -112.009394 100 1126ft 0kts

Navigation Log

Ident Type
Flight plan parsing failed, navigation log unavailable